Terminal Aerodrome Forecast
Issued by NWS

Home | Current Version | Previous Version | Graphics & Text | Print | Product List | Glossary On
Versions: 1 2 3 4 5 6 7 8 9 10 11 12 13 14 15 16 17 18 19 20
171
FTUS43 KTOP 300242 AAA
TAFFOE
TAF AMD
KFOE 300242Z 3003/3024 07017G24KT P6SM -SHRA VCTS SCT008 OVC010CB
      TEMPO 3003/3007 5SM BR OVC008
     FM300700 10010KT 5SM -RA VCTS BKN008 OVC012CB
     FM301400 21011KT P6SM SCT008 BKN015
     FM301900 24009KT P6SM SCT040=

USA.gov is the U.S. government's official web portal to all federal, state and local government web resources and services.